createdAt,value
2018-12-08T00:01:49.388Z,99539.22
2018-12-08T00:04:16.799Z,99532.31
2018-12-08T00:06:44.186Z,99535.67
2018-12-08T00:09:11.598Z,99535.48
2018-12-08T00:11:38.994Z,99539.12
2018-12-08T00:14:06.414Z,99547.67
2018-12-08T00:16:33.802Z,99548.78
2018-12-08T00:19:01.285Z,99536.89
2018-12-08T00:21:28.746Z,99538.54
2018-12-08T00:23:56.169Z,99549.02
2018-12-08T00:26:23.594Z,99545.45
2018-12-08T00:28:50.996Z,99486.38
2018-12-08T00:31:24.085Z,99554.98
2018-12-08T00:33:51.494Z,99555.55
2018-12-08T00:36:18.956Z,99561.61
2018-12-08T00:38:46.372Z,99565.18
2018-12-08T00:41:13.828Z,99555.38
2018-12-08T00:43:41.262Z,99570.50
2018-12-08T00:46:08.759Z,99562.12
2018-12-08T00:48:36.190Z,99569.22
2018-12-08T00:51:03.615Z,99577.77
2018-12-08T00:53:31.030Z,99572.31
2018-12-08T00:55:58.479Z,99585.78
2018-12-08T00:58:25.882Z,99593.33
2018-12-08T01:00:53.278Z,99597.00
2018-12-08T01:03:20.682Z,99599.53
2018-12-08T01:05:48.174Z,99594.20
2018-12-08T01:08:15.606Z,99594.51
2018-12-08T01:10:43.002Z,99589.59
2018-12-08T01:13:10.395Z,99603.16
2018-12-08T01:15:37.786Z,99601.52
2018-12-08T01:18:05.195Z,99609.02
2018-12-08T01:20:32.606Z,99619.16
2018-12-08T01:23:07.609Z,99619.05
2018-12-08T01:25:35.014Z,99623.56
2018-12-08T01:28:02.388Z,99624.07
2018-12-08T01:30:29.796Z,99629.46
2018-12-08T01:32:57.251Z,99635.22
2018-12-08T01:35:24.672Z,99632.63
2018-12-08T01:37:52.081Z,99638.02
2018-12-08T01:40:19.472Z,99634.92
2018-12-08T01:42:51.158Z,99636.84
2018-12-08T01:45:18.537Z,99647.51
2018-12-08T01:47:45.955Z,99651.66
2018-12-08T01:50:13.341Z,99648.48
2018-12-08T01:52:40.720Z,99656.09
2018-12-08T01:55:08.132Z,99643.16
2018-12-08T01:57:35.525Z,99644.44
2018-12-08T02:00:02.977Z,99651.55
2018-12-08T02:02:30.502Z,99649.53
2018-12-08T02:04:57.905Z,99638.91
2018-12-08T02:07:25.289Z,99646.43
2018-12-08T02:09:52.694Z,99653.63
2018-12-08T02:12:20.114Z,99646.73
2018-12-08T02:14:47.506Z,99641.45
2018-12-08T02:17:14.930Z,99637.64
2018-12-08T02:19:42.338Z,99638.75
2018-12-08T02:22:10.414Z,99636.84
2018-12-08T02:24:37.942Z,99634.14
2018-12-08T02:27:05.366Z,99638.19
2018-12-08T02:29:32.746Z,99640.64
2018-12-08T02:32:00.169Z,99633.60
2018-12-08T02:34:27.552Z,99640.64
2018-12-08T02:36:54.941Z,99635.83
2018-12-08T02:39:22.377Z,99636.59
2018-12-08T02:41:49.766Z,99637.17
2018-12-08T02:44:17.416Z,99645.08
2018-12-08T02:46:44.952Z,99630.44
2018-12-08T02:49:12.350Z,99631.92
2018-12-08T02:51:39.850Z,99637.27
2018-12-08T02:54:07.242Z,99632.39
2018-12-08T02:56:34.658Z,99628.92
2018-12-08T02:59:02.055Z,99630.36
2018-12-08T03:01:29.431Z,99646.30
2018-12-08T03:03:56.836Z,99643.26
2018-12-08T03:06:24.294Z,99635.59
2018-12-08T03:08:51.704Z,99634.41
2018-12-08T03:11:19.108Z,99635.18
2018-12-08T03:13:46.554Z,99643.73
2018-12-08T03:16:13.998Z,99638.65
2018-12-08T03:18:41.501Z,99645.72
2018-12-08T03:21:08.955Z,99638.62
2018-12-08T03:23:36.357Z,99638.65
2018-12-08T03:26:03.833Z,99631.04
2018-12-08T03:28:31.234Z,99636.13
2018-12-08T03:30:58.666Z,99642.38
2018-12-08T03:33:26.075Z,99638.28
2018-12-08T03:35:53.544Z,99642.31
2018-12-08T03:38:20.951Z,99644.14
2018-12-08T03:40:48.341Z,99641.91
2018-12-08T03:43:15.762Z,99642.38
2018-12-08T03:45:43.167Z,99634.77
2018-12-08T03:48:10.558Z,99635.25
2018-12-08T03:50:37.995Z,99628.45
2018-12-08T03:53:05.394Z,99635.65
2018-12-08T03:55:32.811Z,99626.33
2018-12-08T03:58:00.206Z,99618.72
2018-12-08T04:00:27.615Z,99620.53
2018-12-08T04:02:55.006Z,99627.67
2018-12-08T04:05:22.401Z,99624.81
2018-12-08T04:07:49.779Z,99619.19
2018-12-08T04:10:17.177Z,99623.53
2018-12-08T04:12:44.606Z,99609.02
2018-12-08T04:15:12.144Z,99603.27
2018-12-08T04:17:39.712Z,99615.38
2018-12-08T04:20:07.124Z,99603.50
2018-12-08T04:22:34.629Z,99602.16
2018-12-08T04:25:02.027Z,99602.25
2018-12-08T04:27:31.837Z,99595.02
2018-12-08T04:29:59.266Z,99594.17
2018-12-08T04:32:26.671Z,99600.50
2018-12-08T04:34:54.115Z,99599.05
2018-12-08T04:37:21.510Z,99593.77
2018-12-08T04:39:48.910Z,99595.02
2018-12-08T04:42:16.287Z,99586.30
2018-12-08T04:44:43.707Z,99588.63
2018-12-08T04:47:11.097Z,99582.66
2018-12-08T04:49:38.513Z,99584.95
2018-12-08T04:52:05.911Z,99581.39
2018-12-08T04:54:33.307Z,99584.41
2018-12-08T04:57:00.689Z,99581.89
2018-12-08T04:59:28.094Z,99573.23
2018-12-08T05:01:55.493Z,99575.53
2018-12-08T05:04:22.927Z,99578.96
2018-12-08T05:06:50.341Z,99558.02
2018-12-08T05:09:17.742Z,99558.42
2018-12-08T05:11:45.204Z,99557.08
2018-12-08T05:14:12.607Z,99550.34
2018-12-08T05:16:39.986Z,99562.88
2018-12-08T05:19:07.465Z,99551.92
2018-12-08T05:21:34.949Z,99544.02
2018-12-08T05:24:02.379Z,99548.42
2018-12-08T05:26:29.775Z,99539.73
2018-12-08T05:28:57.168Z,99536.17
2018-12-08T05:31:24.579Z,99544.02
2018-12-08T05:33:53.179Z,99538.46
2018-12-08T05:36:20.578Z,99531.36
2018-12-08T05:38:47.985Z,99539.98
2018-12-08T05:41:15.429Z,99533.89
2018-12-08T05:43:42.816Z,99524.77
2018-12-08T05:46:10.246Z,99528.80
2018-12-08T05:48:37.692Z,99532.73
2018-12-08T05:51:05.067Z,99528.19
2018-12-08T05:53:32.437Z,99515.67
2018-12-08T05:55:59.830Z,99517.62
2018-12-08T05:58:27.245Z,99507.73
2018-12-08T06:00:54.703Z,99510.35
2018-12-08T06:03:22.093Z,99500.92
2018-12-08T06:05:49.486Z,99502.61
2018-12-08T06:08:16.907Z,99490.31
2018-12-08T06:10:44.294Z,99489.44
2018-12-08T06:13:11.686Z,99497.34
2018-12-08T06:15:39.118Z,99493.00
2018-12-08T06:18:06.549Z,99493.38
2018-12-08T06:20:34.034Z,99497.17
2018-12-08T06:23:01.417Z,99492.85
2018-12-08T06:25:29.979Z,99498.64
2018-12-08T06:27:59.473Z,99476.59
2018-12-08T06:30:26.938Z,99494.79
2018-12-08T06:32:54.346Z,99471.36
2018-12-08T06:35:21.726Z,99491.26
2018-12-08T06:37:49.121Z,99487.39
2018-12-08T06:40:16.517Z,99491.33
2018-12-08T06:42:44.027Z,99496.72
2018-12-08T06:45:11.419Z,99494.35
2018-12-08T06:47:38.831Z,99487.62
2018-12-08T06:50:07.611Z,99482.02
2018-12-08T06:52:34.998Z,99485.22
2018-12-08T06:55:02.397Z,99488.86
2018-12-08T06:57:29.873Z,99483.66
2018-12-08T06:59:57.351Z,99487.52
2018-12-08T07:02:24.824Z,99488.46
2018-12-08T07:04:52.253Z,99471.46
2018-12-08T07:07:19.648Z,99472.88
2018-12-08T07:09:47.273Z,99469.89
2018-12-08T07:12:14.654Z,99474.36
2018-12-08T07:14:42.047Z,99468.78
2018-12-08T07:17:09.446Z,99474.17
2018-12-08T07:19:36.893Z,99462.89
2018-12-08T07:22:04.297Z,99463.47
2018-12-08T07:24:31.689Z,99464.34
2018-12-08T07:26:59.145Z,99460.87
2018-12-08T07:29:26.540Z,99464.34
2018-12-08T07:31:53.939Z,99458.95
2018-12-08T07:34:21.334Z,99464.41
2018-12-08T07:36:48.738Z,99460.37
2018-12-08T07:39:16.142Z,99457.31
2018-12-08T07:41:43.525Z,99458.19
2018-12-08T07:44:10.957Z,99457.89
2018-12-08T07:46:38.374Z,99439.41
2018-12-08T07:49:05.863Z,99446.61
2018-12-08T07:51:33.365Z,99449.81
2018-12-08T07:54:00.853Z,99443.63
2018-12-08T07:56:28.322Z,99434.67
2018-12-08T07:58:55.717Z,99446.79
2018-12-08T08:01:23.154Z,99439.22
2018-12-08T08:03:50.557Z,99431.61
2018-12-08T08:06:17.950Z,99441.11
2018-12-08T08:08:45.335Z,99433.42
2018-12-08T08:11:12.702Z,99437.17
2018-12-08T08:13:40.125Z,99438.11
2018-12-08T08:16:07.574Z,99441.28
2018-12-08T08:18:34.992Z,99431.31
2018-12-08T08:21:02.408Z,99438.11
2018-12-08T08:23:29.810Z,99415.33
2018-12-08T08:25:57.211Z,99420.79
2018-12-08T08:28:24.657Z,99405.98
2018-12-08T08:30:52.042Z,99409.95
2018-12-08T08:33:19.434Z,99406.95
2018-12-08T08:35:46.835Z,99411.36
2018-12-08T08:38:14.241Z,99397.91
2018-12-08T08:40:41.722Z,99396.19
2018-12-08T08:43:09.110Z,99394.84
2018-12-08T08:45:36.834Z,99393.57
2018-12-08T08:48:04.378Z,99388.66
2018-12-08T08:50:31.757Z,99395.31
2018-12-08T08:53:01.123Z,99390.87
2018-12-08T08:55:28.532Z,99380.52
2018-12-08T08:57:55.914Z,99373.30
2018-12-08T09:00:23.619Z,99375.77
2018-12-08T09:02:51.077Z,99376.55
2018-12-08T09:05:18.562Z,99369.34
2018-12-08T09:07:45.949Z,99372.03
2018-12-08T09:10:13.342Z,99335.04
2018-12-08T09:12:40.733Z,99362.24
2018-12-08T09:15:08.490Z,99363.59
2018-12-08T09:17:35.938Z,99359.92
2018-12-08T09:20:03.829Z,99355.52
2018-12-08T09:22:31.228Z,99360.39
2018-12-08T09:24:58.630Z,99358.28
2018-12-08T09:27:26.116Z,99355.11
2018-12-08T09:29:53.572Z,99358.67
2018-12-08T09:32:21.018Z,99357.41
2018-12-08T09:34:48.455Z,99345.56
2018-12-08T09:37:15.861Z,99362.91
2018-12-08T09:39:43.294Z,99347.59
2018-12-08T09:42:10.685Z,99345.95
2018-12-08T09:44:38.102Z,99347.25
2018-12-08T09:47:05.586Z,99339.16
2018-12-08T09:49:33.000Z,99326.01
2018-12-08T09:52:00.570Z,99328.78
2018-12-08T09:54:28.564Z,99329.44
2018-12-08T09:59:40.089Z,99321.32
2018-12-08T10:02:07.567Z,99318.25
2018-12-08T10:04:34.986Z,99322.28
2018-12-08T10:07:02.384Z,99296.60
2018-12-08T10:09:29.810Z,99324.67
2018-12-08T10:11:57.242Z,99313.91
2018-12-08T10:14:25.042Z,99313.14
2018-12-08T10:16:52.458Z,99310.09
2018-12-08T10:19:19.910Z,99301.64
2018-12-08T10:21:47.303Z,99296.19
2018-12-08T10:24:14.699Z,99284.39
2018-12-08T10:26:42.093Z,99290.47
2018-12-08T10:29:09.478Z,99278.39
2018-12-08T10:31:36.914Z,99272.81
2018-12-08T10:34:04.282Z,99274.34
2018-12-08T10:36:31.701Z,99292.25
2018-12-08T10:38:59.094Z,99268.88
2018-12-08T10:41:26.513Z,99262.63
2018-12-08T10:43:54.065Z,99264.08
2018-12-08T10:46:21.467Z,99248.97
2018-12-08T10:48:48.902Z,99270.59
2018-12-08T10:51:16.298Z,99253.31
2018-12-08T10:53:43.698Z,99245.30
2018-12-08T10:56:11.118Z,99238.97
2018-12-08T10:58:38.522Z,99245.23
2018-12-08T11:01:11.085Z,99250.39
2018-12-08T11:03:47.318Z,99237.16
2018-12-08T11:06:16.838Z,99231.23
2018-12-08T11:08:44.369Z,99234.14
2018-12-08T11:11:11.801Z,99227.22
2018-12-08T11:13:39.209Z,99230.70
2018-12-08T11:16:06.725Z,99223.27
2018-12-08T11:18:34.169Z,99228.85
2018-12-08T11:21:01.657Z,99226.38
2018-12-08T11:23:29.067Z,99225.11
2018-12-08T11:25:56.486Z,99223.69
2018-12-08T11:28:23.899Z,99220.69
2018-12-08T11:30:51.286Z,99228.02
2018-12-08T11:33:18.733Z,99219.83
2018-12-08T11:35:46.997Z,99220.06
2018-12-08T11:38:14.435Z,99218.72
2018-12-08T11:40:41.886Z,99222.86
2018-12-08T11:43:09.466Z,99213.52
2018-12-08T11:45:37.159Z,99211.11
2018-12-08T11:48:04.673Z,99219.51
2018-12-08T11:50:32.076Z,99196.94
2018-12-08T11:52:59.526Z,99202.61
2018-12-08T11:55:30.382Z,99199.81
2018-12-08T11:57:56.491Z,99193.17
2018-12-08T12:00:23.903Z,99204.42
2018-12-08T12:02:51.291Z,99185.09
2018-12-08T12:05:18.688Z,99192.30
2018-12-08T12:07:46.176Z,99172.39
2018-12-08T12:10:13.573Z,99186.65
2018-12-08T12:12:41.029Z,99183.16
2018-12-08T12:15:08.443Z,99176.94
2018-12-08T12:17:35.912Z,99184.14
2018-12-08T12:20:03.359Z,99188.87
2018-12-08T12:22:30.891Z,99178.75
2018-12-08T12:24:58.501Z,99178.75
2018-12-08T12:27:25.902Z,99177.41
2018-12-08T12:29:53.281Z,99181.45
2018-12-08T12:32:20.697Z,99174.23
2018-12-08T12:34:48.126Z,99170.84
2018-12-08T12:37:15.525Z,99166.24
2018-12-08T12:39:42.924Z,99166.35
2018-12-08T12:42:10.321Z,99157.48
2018-12-08T12:44:37.745Z,99153.55
2018-12-08T12:47:05.194Z,99144.23
2018-12-08T12:49:32.606Z,99145.47
2018-12-08T12:52:00.125Z,99149.63
2018-12-08T12:54:27.502Z,99144.33
2018-12-08T12:56:54.893Z,99148.84
2018-12-08T12:59:22.373Z,99155.58
2018-12-08T13:01:49.763Z,99146.16
2018-12-08T13:04:17.189Z,99149.32
2018-12-08T13:06:45.645Z,99146.81
2018-12-08T13:09:13.026Z,99133.15
2018-12-08T13:11:41.434Z,99152.11
2018-12-08T13:14:08.845Z,99150.66
2018-12-08T13:16:36.244Z,99149.70
2018-12-08T13:19:03.689Z,99146.93
2018-12-08T13:21:31.077Z,99138.93
2018-12-08T13:23:58.620Z,99143.37
2018-12-08T13:26:26.009Z,99138.53
2018-12-08T13:28:53.586Z,99135.29
2018-12-08T13:31:20.983Z,99145.87
2018-12-08T13:33:49.973Z,99148.66
2018-12-08T13:36:17.409Z,99157.97
2018-12-08T13:38:44.802Z,99151.99
2018-12-08T13:41:12.254Z,99140.37
2018-12-08T13:43:39.655Z,99145.66
2018-12-08T13:46:07.261Z,99151.05
2018-12-08T13:48:34.813Z,99145.55
2018-12-08T13:51:02.344Z,99145.94
2018-12-08T13:53:36.495Z,99135.64
2018-12-08T13:55:59.247Z,99143.72
2018-12-08T13:58:26.651Z,99139.11
2018-12-08T14:00:54.070Z,99134.68
2018-12-08T14:03:21.487Z,99144.90
2018-12-08T14:05:48.875Z,99122.00
2018-12-08T14:08:16.417Z,99142.02
2018-12-08T14:10:43.833Z,99128.03
2018-12-08T14:13:11.229Z,99110.34
2018-12-08T14:15:38.625Z,99115.16
2018-12-08T14:18:06.025Z,99127.67
2018-12-08T14:20:34.486Z,99131.43
2018-12-08T14:23:01.872Z,99126.59
2018-12-08T14:25:29.286Z,99135.55
2018-12-08T14:27:56.694Z,99141.92
2018-12-08T14:30:24.081Z,99113.64
2018-12-08T14:32:51.514Z,99131.23
2018-12-08T14:35:18.906Z,99118.16
2018-12-08T14:37:46.344Z,99138.72
2018-12-08T14:40:13.812Z,99133.84
2018-12-08T14:42:41.216Z,99135.08
2018-12-08T14:45:09.613Z,99133.06
2018-12-08T14:47:37.022Z,99129.78
2018-12-08T14:50:04.737Z,99127.84
2018-12-08T14:52:32.195Z,99129.58
2018-12-08T14:54:59.598Z,99127.77
2018-12-08T14:57:26.986Z,99135.36
2018-12-08T14:59:54.390Z,99127.17
2018-12-08T15:02:21.804Z,99118.73
2018-12-08T15:04:49.245Z,99129.00
2018-12-08T15:07:16.643Z,99118.22
2018-12-08T15:09:44.066Z,99139.48
2018-12-08T15:12:11.469Z,99113.42
2018-12-08T15:14:38.899Z,99116.51
2018-12-08T15:17:06.441Z,99117.94
2018-12-08T15:19:33.840Z,99115.24
2018-12-08T15:22:01.262Z,99111.68
2018-12-08T15:24:28.734Z,99116.59
2018-12-08T15:26:56.133Z,99127.37
2018-12-08T15:29:23.550Z,99130.17
2018-12-08T15:31:50.994Z,99133.73
2018-12-08T15:34:18.428Z,99129.30
2018-12-08T15:36:45.833Z,99122.64
2018-12-08T15:39:13.250Z,99111.03
2018-12-08T15:41:40.657Z,99122.77
2018-12-08T15:44:08.067Z,99121.02
2018-12-08T15:46:35.509Z,99120.54
2018-12-08T15:49:02.989Z,99125.56
2018-12-08T15:51:30.389Z,99128.27
2018-12-08T15:53:59.287Z,99134.13
2018-12-08T15:56:26.660Z,99134.68
2018-12-08T15:58:54.064Z,99110.08
2018-12-08T16:01:21.464Z,99125.25
2018-12-08T16:03:48.897Z,99133.73
2018-12-08T16:06:16.301Z,99134.31
2018-12-08T16:08:43.698Z,99125.25
2018-12-08T16:11:11.097Z,99135.08
2018-12-08T16:13:38.533Z,99121.89
2018-12-08T16:16:05.925Z,99116.42
2018-12-08T16:18:33.349Z,99135.56
2018-12-08T16:21:02.285Z,99128.34
2018-12-08T16:23:29.677Z,99132.75
2018-12-08T16:25:57.078Z,99131.80
2018-12-08T16:28:24.477Z,99133.63
2018-12-08T16:30:51.955Z,99123.72
2018-12-08T16:33:19.390Z,99124.95
2018-12-08T16:35:46.913Z,99122.38
2018-12-08T16:38:14.346Z,99128.16
2018-12-08T16:40:42.632Z,99113.34
2018-12-08T16:43:10.170Z,99123.61
2018-12-08T16:45:37.649Z,99114.69
2018-12-08T16:48:05.038Z,99127.77
2018-12-08T16:50:32.438Z,99114.77
2018-12-08T16:52:59.817Z,99119.68
2018-12-08T16:55:27.242Z,99115.24
2018-12-08T16:57:54.662Z,99113.53
2018-12-08T17:00:22.940Z,99116.23
2018-12-08T17:02:50.340Z,99121.22
2018-12-08T17:05:17.740Z,99121.81
2018-12-08T17:07:45.137Z,99115.91
2018-12-08T17:10:12.530Z,99120.54
2018-12-08T17:12:39.939Z,99123.99
2018-12-08T17:15:07.358Z,99117.37
2018-12-08T17:17:34.764Z,99123.16
2018-12-08T17:20:02.160Z,99123.52
2018-12-08T17:22:29.595Z,99118.44
2018-12-08T17:24:57.876Z,99120.38
2018-12-08T17:27:25.346Z,99115.46
2018-12-08T17:29:53.523Z,99124.49
2018-12-08T17:32:20.958Z,99109.68
2018-12-08T17:34:48.364Z,99111.42
2018-12-08T17:37:16.544Z,99108.81
2018-12-08T17:39:44.446Z,99118.63
2018-12-08T17:42:11.881Z,99115.94
2018-12-08T17:44:39.313Z,99111.11
2018-12-08T17:47:07.263Z,99116.78
2018-12-08T17:49:37.615Z,99114.30
2018-12-08T17:52:05.931Z,99110.25
2018-12-08T17:54:33.372Z,99101.10
2018-12-08T17:57:00.955Z,99080.17
2018-12-08T17:59:28.486Z,99105.34
2018-12-08T18:01:56.228Z,99098.19
2018-12-08T18:04:24.045Z,99095.13
2018-12-08T18:06:51.798Z,99106.38
2018-12-08T18:09:19.828Z,99099.05
2018-12-08T18:11:47.980Z,99097.90
2018-12-08T18:14:16.149Z,99093.86
2018-12-08T18:16:44.627Z,99089.66
2018-12-08T18:19:12.561Z,99093.50
2018-12-08T18:21:40.541Z,99082.84
2018-12-08T18:24:09.041Z,99080.14
2018-12-08T18:26:39.770Z,99083.31
2018-12-08T18:29:15.248Z,99079.86
2018-12-08T18:31:43.281Z,99072.62
2018-12-08T18:34:10.798Z,99066.00
2018-12-08T18:36:39.803Z,99070.04
2018-12-08T18:39:07.959Z,99063.50
2018-12-08T18:41:35.588Z,99062.27
2018-12-08T18:44:03.027Z,99057.36
2018-12-08T18:46:31.138Z,99047.06
2018-12-08T18:49:00.487Z,99045.32
2018-12-08T18:51:28.663Z,99033.31
2018-12-08T18:53:56.404Z,99041.88
2018-12-08T18:56:23.900Z,99034.74
2018-12-08T18:58:51.799Z,99038.42
2018-12-08T19:01:19.352Z,99044.28
2018-12-08T19:03:47.291Z,99043.89
2018-12-08T19:06:15.747Z,99043.53
2018-12-08T19:08:45.035Z,99049.67
2018-12-08T19:11:12.498Z,99041.76
2018-12-08T19:13:39.961Z,99041.84
2018-12-08T19:16:07.383Z,99042.15
2018-12-08T19:18:34.782Z,99043.30
2018-12-08T19:21:02.191Z,99040.97
2018-12-08T19:23:29.602Z,99046.63
2018-12-08T19:25:57.006Z,99030.11
2018-12-08T19:28:24.402Z,99035.58
2018-12-08T19:30:51.914Z,99022.11
2018-12-08T19:33:19.305Z,99019.69
2018-12-08T19:35:46.741Z,99026.82
2018-12-08T19:38:14.125Z,99021.52
2018-12-08T19:40:41.583Z,99020.28
2018-12-08T19:43:09.006Z,99010.37
2018-12-08T19:45:36.425Z,99009.98
2018-12-08T19:48:03.826Z,99000.40
2018-12-08T19:50:31.238Z,99001.83
2018-12-08T19:52:58.654Z,99004.05
2018-12-08T19:55:26.071Z,98996.72
2018-12-08T19:57:54.190Z,98989.63
2018-12-08T20:00:22.668Z,98986.06
2018-12-08T20:02:50.107Z,98981.15
2018-12-08T20:05:17.514Z,98971.81
2018-12-08T20:07:45.021Z,98972.67
2018-12-08T20:10:12.437Z,98980.20
2018-12-08T20:12:39.855Z,98963.44
2018-12-08T20:15:08.962Z,98962.84
2018-12-08T20:17:36.367Z,98954.61
2018-12-08T20:20:03.862Z,98954.69
2018-12-08T20:22:31.560Z,98956.91
2018-12-08T20:24:59.071Z,98943.25
2018-12-08T20:27:26.476Z,98933.34
2018-12-08T20:29:53.903Z,98924.19
2018-12-08T20:32:21.373Z,98922.96
2018-12-08T20:34:48.766Z,98916.23
2018-12-08T20:37:16.186Z,98926.02
2018-12-08T20:39:43.592Z,98911.98
2018-12-08T20:42:12.169Z,98896.58
2018-12-08T20:44:39.630Z,98893.41
2018-12-08T20:47:07.064Z,98888.77
2018-12-08T20:49:34.461Z,98879.13
2018-12-08T20:52:01.852Z,98879.13
2018-12-08T20:54:29.254Z,98875.36
2018-12-08T20:56:56.676Z,98868.54
2018-12-08T20:59:24.066Z,98867.94
2018-12-08T21:01:51.462Z,98867.73
2018-12-08T21:04:18.932Z,98859.38
2018-12-08T21:06:46.325Z,98854.86
2018-12-08T21:09:13.719Z,98843.70
2018-12-08T21:11:41.126Z,98835.22
2018-12-08T21:14:08.534Z,98836.48
2018-12-08T21:16:36.096Z,98821.66
2018-12-08T21:19:03.659Z,98815.41
2018-12-08T21:21:31.070Z,98815.14
2018-12-08T21:23:58.656Z,98803.02
2018-12-08T21:26:26.120Z,98798.58
2018-12-08T21:28:53.529Z,98787.27
2018-12-08T21:31:21.706Z,98784.19
2018-12-08T21:33:49.161Z,98775.96
2018-12-08T21:36:16.567Z,98772.80
2018-12-08T21:38:43.998Z,98766.80
2018-12-08T21:41:11.432Z,98766.89
2018-12-08T21:43:38.846Z,98759.53
2018-12-08T21:46:06.395Z,98747.23
2018-12-08T21:48:33.833Z,98746.49
2018-12-08T21:51:01.311Z,98735.12
2018-12-08T21:53:28.726Z,98742.80
2018-12-08T21:55:56.138Z,98735.81
2018-12-08T21:58:23.685Z,98737.27
2018-12-08T22:00:51.358Z,98742.08
2018-12-08T22:03:18.812Z,98725.70
2018-12-08T22:05:46.422Z,98717.62
2018-12-08T22:08:13.924Z,98701.25
2018-12-08T22:10:41.400Z,98699.08
2018-12-08T22:13:08.819Z,98694.56
2018-12-08T22:15:36.271Z,98682.27
2018-12-08T22:18:03.663Z,98666.80
2018-12-08T22:20:31.440Z,98669.80
2018-12-08T22:22:59.513Z,98667.02
2018-12-08T22:25:26.898Z,98655.50
2018-12-08T22:27:54.293Z,98650.95
2018-12-08T22:30:21.817Z,98638.08
2018-12-08T22:32:49.214Z,98625.09
2018-12-08T22:35:16.614Z,98616.91
2018-12-08T22:37:44.006Z,98604.31
2018-12-08T22:40:11.469Z,98589.98
2018-12-08T22:42:38.925Z,98593.85
2018-12-08T22:45:06.605Z,98574.39
2018-12-08T22:47:34.007Z,98556.66
2018-12-08T22:50:01.402Z,98554.34
2018-12-08T22:52:28.859Z,98548.25
2018-12-08T22:54:56.245Z,98542.25
2018-12-08T22:57:23.673Z,98536.00
2018-12-08T22:59:51.062Z,98515.92
2018-12-08T23:02:18.460Z,98511.27
2018-12-08T23:04:45.903Z,98506.75
2018-12-08T23:07:13.497Z,98504.53
2018-12-08T23:09:40.916Z,98498.98
2018-12-08T23:12:08.358Z,98492.64
2018-12-08T23:14:35.742Z,98482.60
2018-12-08T23:17:03.149Z,98465.19
2018-12-08T23:19:30.540Z,98455.38
2018-12-08T23:21:57.942Z,98459.58
2018-12-08T23:24:25.400Z,98441.45
2018-12-08T23:26:52.825Z,98435.10
2018-12-08T23:29:20.245Z,98425.55
2018-12-08T23:31:47.648Z,98414.41
2018-12-08T23:34:15.078Z,98394.05
2018-12-08T23:36:42.508Z,98382.81
2018-12-08T23:39:09.920Z,98365.79
2018-12-08T23:41:37.325Z,98375.83
2018-12-08T23:44:04.749Z,98378.05
2018-12-08T23:46:32.270Z,98381.47
2018-12-08T23:48:59.663Z,98359.78
2018-12-08T23:51:27.066Z,98334.80
2018-12-08T23:53:54.526Z,98337.25
2018-12-08T23:56:21.922Z,98343.50
2018-12-08T23:58:49.354Z,98354.52
